sensor_id;sensor_type;location;lat;lon;timestamp;pressure;altitude;pressure_sealevel;temperature;humidity
64158;BME280;50449;51.528;5.076;2022-08-25T00:01:19;101517.97;;;30.36;40.63
64158;BME280;50449;51.528;5.076;2022-08-25T00:03:46;101517.88;;;30.32;40.75
64158;BME280;50449;51.528;5.076;2022-08-25T00:06:13;101517.78;;;30.29;40.61
64158;BME280;50449;51.528;5.076;2022-08-25T00:08:39;101518.94;;;30.28;40.50
64158;BME280;50449;51.528;5.076;2022-08-25T00:11:12;101525.25;;;30.25;40.78
64158;BME280;50449;51.528;5.076;2022-08-25T00:13:43;101506.44;;;30.22;40.67
64158;BME280;50449;51.528;5.076;2022-08-25T00:16:14;101517.13;;;30.19;40.75
64158;BME280;50449;51.528;5.076;2022-08-25T00:18:42;101515.06;;;30.16;40.77
64158;BME280;50449;51.528;5.076;2022-08-25T00:21:10;101511.81;;;30.14;40.71
64158;BME280;50449;51.528;5.076;2022-08-25T00:23:36;101515.28;;;30.11;40.78
64158;BME280;50449;51.528;5.076;2022-08-25T00:26:01;101518.81;;;30.08;40.90
64158;BME280;50449;51.528;5.076;2022-08-25T00:28:27;101515.56;;;30.06;41.36
64158;BME280;50449;51.528;5.076;2022-08-25T00:30:54;101517.91;;;30.04;40.82
64158;BME280;50449;51.528;5.076;2022-08-25T00:33:21;101508.66;;;30.00;41.07
64158;BME280;50449;51.528;5.076;2022-08-25T00:35:46;101511.78;;;29.98;41.13
64158;BME280;50449;51.528;5.076;2022-08-25T00:38:12;101505.78;;;29.96;41.07
64158;BME280;50449;51.528;5.076;2022-08-25T00:40:38;101512.88;;;29.94;41.20
64158;BME280;50449;51.528;5.076;2022-08-25T00:43:05;101509.97;;;29.90;41.00
64158;BME280;50449;51.528;5.076;2022-08-25T00:45:31;101509.50;;;29.88;41.46
64158;BME280;50449;51.528;5.076;2022-08-25T00:47:57;101508.25;;;29.86;41.36
64158;BME280;50449;51.528;5.076;2022-08-25T00:50:23;101511.75;;;29.83;41.21
64158;BME280;50449;51.528;5.076;2022-08-25T00:52:51;101508.50;;;29.81;41.44
64158;BME280;50449;51.528;5.076;2022-08-25T00:55:47;101506.44;;;29.77;41.39
64158;BME280;50449;51.528;5.076;2022-08-25T00:58:22;101509.94;;;29.74;41.27
64158;BME280;50449;51.528;5.076;2022-08-25T01:00:53;101510.66;;;29.71;40.98
64158;BME280;50449;51.528;5.076;2022-08-25T01:03:20;101506.16;;;29.67;41.17
64158;BME280;50449;51.528;5.076;2022-08-25T01:05:46;101508.44;;;29.65;41.54
64158;BME280;50449;51.528;5.076;2022-08-25T01:08:13;101503.94;;;29.60;41.38
64158;BME280;50449;51.528;5.076;2022-08-25T01:10:42;101496.75;;;29.59;41.18
64158;BME280;50449;51.528;5.076;2022-08-25T01:13:13;101501.06;;;29.57;41.73
64158;BME280;50449;51.528;5.076;2022-08-25T01:15:39;101500.59;;;29.54;41.67
64158;BME280;50449;51.528;5.076;2022-08-25T01:18:05;101494.94;;;29.51;41.68
64158;BME280;50449;51.528;5.076;2022-08-25T01:20:31;101492.50;;;29.49;42.22
64158;BME280;50449;51.528;5.076;2022-08-25T01:22:58;101495.16;;;29.46;41.90
64158;BME280;50449;51.528;5.076;2022-08-25T01:28:03;101489.84;;;29.41;41.88
64158;BME280;50449;51.528;5.076;2022-08-25T01:30:29;101490.22;;;29.39;41.79
64158;BME280;50449;51.528;5.076;2022-08-25T01:32:55;101487.31;;;29.36;42.05
64158;BME280;50449;51.528;5.076;2022-08-25T01:35:20;101490.81;;;29.32;41.97
64158;BME280;50449;51.528;5.076;2022-08-25T01:37:45;101494.31;;;29.29;42.21
64158;BME280;50449;51.528;5.076;2022-08-25T01:40:11;101495.81;;;29.27;42.02
64158;BME280;50449;51.528;5.076;2022-08-25T01:45:08;101493.75;;;29.24;42.04
64158;BME280;50449;51.528;5.076;2022-08-25T01:47:35;101494.47;;;29.21;42.24
64158;BME280;50449;51.528;5.076;2022-08-25T01:50:02;101491.22;;;29.19;42.26
64158;BME280;50449;51.528;5.076;2022-08-25T01:52:50;101495.50;;;29.16;42.28
64158;BME280;50449;51.528;5.076;2022-08-25T01:55:18;101497.38;;;29.12;42.22
64158;BME280;50449;51.528;5.076;2022-08-25T01:57:43;101491.34;;;29.10;42.01
64158;BME280;50449;51.528;5.076;2022-08-25T02:00:10;101488.09;;;29.08;42.30
64158;BME280;50449;51.528;5.076;2022-08-25T02:02:38;101488.75;;;29.05;42.33
64158;BME280;50449;51.528;5.076;2022-08-25T02:05:04;101490.28;;;29.02;42.34
64158;BME280;50449;51.528;5.076;2022-08-25T02:07:30;101487.41;;;28.99;42.18
64158;BME280;50449;51.528;5.076;2022-08-25T02:09:56;101493.28;;;28.97;42.34
64158;BME280;50449;51.528;5.076;2022-08-25T02:12:22;101490.06;;;28.95;42.20
64158;BME280;50449;51.528;5.076;2022-08-25T02:14:47;101483.59;;;28.91;41.90
64158;BME280;50449;51.528;5.076;2022-08-25T02:17:13;101487.50;;;28.90;42.21
64158;BME280;50449;51.528;5.076;2022-08-25T02:19:38;101479.06;;;28.86;42.16
64158;BME280;50449;51.528;5.076;2022-08-25T02:22:04;101480.59;;;28.84;42.06
64158;BME280;50449;51.528;5.076;2022-08-25T02:24:30;101474.56;;;28.82;42.15
64158;BME280;50449;51.528;5.076;2022-08-25T02:26:56;101480.81;;;28.79;42.16
64158;BME280;50449;51.528;5.076;2022-08-25T02:29:22;101474.00;;;28.76;42.41
64158;BME280;50449;51.528;5.076;2022-08-25T02:31:47;101481.06;;;28.74;42.09
64158;BME280;50449;51.528;5.076;2022-08-25T02:34:13;101481.75;;;28.71;42.21
64158;BME280;50449;51.528;5.076;2022-08-25T02:36:39;101475.72;;;28.68;42.29
64158;BME280;50449;51.528;5.076;2022-08-25T02:39:07;101471.69;;;28.66;42.26
64158;BME280;50449;51.528;5.076;2022-08-25T02:41:33;101480.72;;;28.63;42.17
64158;BME280;50449;51.528;5.076;2022-08-25T02:44:01;101471.91;;;28.61;42.21
64158;BME280;50449;51.528;5.076;2022-08-25T02:46:27;101468.19;;;28.57;42.28
64158;BME280;50449;51.528;5.076;2022-08-25T02:48:53;101468.91;;;28.54;42.30
64158;BME280;50449;51.528;5.076;2022-08-25T02:51:21;101470.41;;;28.51;42.28
64158;BME280;50449;51.528;5.076;2022-08-25T02:53:47;101460.78;;;28.48;42.13
64158;BME280;50449;51.528;5.076;2022-08-25T02:56:14;101465.09;;;28.46;42.08
64158;BME280;50449;51.528;5.076;2022-08-25T02:58:41;101462.13;;;28.42;42.48
64158;BME280;50449;51.528;5.076;2022-08-25T03:01:07;101465.28;;;28.41;42.28
64158;BME280;50449;51.528;5.076;2022-08-25T03:03:37;101457.66;;;28.38;42.44
64158;BME280;50449;51.528;5.076;2022-08-25T03:06:05;101457.97;;;28.36;42.47
64158;BME280;50449;51.528;5.076;2022-08-25T03:08:30;101445.94;;;28.32;42.19
64158;BME280;50449;51.528;5.076;2022-08-25T03:10:56;101450.69;;;28.32;42.41
64158;BME280;50449;51.528;5.076;2022-08-25T03:13:21;101447.78;;;28.28;42.46
64158;BME280;50449;51.528;5.076;2022-08-25T03:15:46;101442.56;;;28.26;42.27
64158;BME280;50449;51.528;5.076;2022-08-25T03:18:12;101450.81;;;28.23;42.39
64158;BME280;50449;51.528;5.076;2022-08-25T03:20:38;101435.97;;;28.19;42.28
64158;BME280;50449;51.528;5.076;2022-08-25T03:23:04;101437.16;;;28.18;42.54
64158;BME280;50449;51.528;5.076;2022-08-25T03:25:30;101441.44;;;28.15;42.40
64158;BME280;50449;51.528;5.076;2022-08-25T03:28:14;101438.50;;;28.12;42.03
64158;BME280;50449;51.528;5.076;2022-08-25T03:30:40;101442.47;;;28.11;42.34
64158;BME280;50449;51.528;5.076;2022-08-25T03:33:06;101434.81;;;28.08;42.19
64158;BME280;50449;51.528;5.076;2022-08-25T03:35:31;101429.94;;;28.04;42.35
64158;BME280;50449;51.528;5.076;2022-08-25T03:37:57;101425.88;;;28.02;42.22
64158;BME280;50449;51.528;5.076;2022-08-25T03:40:23;101424.59;;;27.99;42.08
64158;BME280;50449;51.528;5.076;2022-08-25T03:42:49;101429.72;;;27.97;42.13
64158;BME280;50449;51.528;5.076;2022-08-25T03:45:16;101431.22;;;27.95;42.13
64158;BME280;50449;51.528;5.076;2022-08-25T03:47:45;101432.72;;;27.92;41.71
64158;BME280;50449;51.528;5.076;2022-08-25T03:50:12;101435.03;;;27.90;42.09
64158;BME280;50449;51.528;5.076;2022-08-25T03:52:38;101422.63;;;27.88;42.11
64158;BME280;50449;51.528;5.076;2022-08-25T03:55:06;101422.97;;;27.86;41.75
64158;BME280;50449;51.528;5.076;2022-08-25T03:57:32;101412.56;;;27.83;41.85
64158;BME280;50449;51.528;5.076;2022-08-25T03:59:58;101410.13;;;27.81;41.89
64158;BME280;50449;51.528;5.076;2022-08-25T04:02:23;101400.84;;;27.77;41.82
64158;BME280;50449;51.528;5.076;2022-08-25T04:04:48;101405.91;;;27.75;41.95
64158;BME280;50449;51.528;5.076;2022-08-25T04:07:14;101408.22;;;27.73;41.79
64158;BME280;50449;51.528;5.076;2022-08-25T04:09:40;101410.53;;;27.71;41.71
64158;BME280;50449;51.528;5.076;2022-08-25T04:12:05;101404.88;;;27.68;41.29
64158;BME280;50449;51.528;5.076;2022-08-25T04:14:31;101415.50;;;27.66;41.52
64158;BME280;50449;51.528;5.076;2022-08-25T04:16:56;101411.44;;;27.63;41.48
64158;BME280;50449;51.528;5.076;2022-08-25T04:19:22;101412.13;;;27.60;41.42
64158;BME280;50449;51.528;5.076;2022-08-25T04:21:47;101409.22;;;27.56;41.44
64158;BME280;50449;51.528;5.076;2022-08-25T04:24:13;101403.22;;;27.54;41.75
64158;BME280;50449;51.528;5.076;2022-08-25T04:26:45;101410.25;;;27.52;41.28
64158;BME280;50449;51.528;5.076;2022-08-25T04:29:13;101409.78;;;27.50;41.14
64158;BME280;50449;51.528;5.076;2022-08-25T04:31:41;101411.28;;;27.47;41.39
64158;BME280;50449;51.528;5.076;2022-08-25T04:34:07;101406.38;;;27.44;41.39
64158;BME280;50449;51.528;5.076;2022-08-25T04:36:33;101399.22;;;27.43;41.17
64158;BME280;50449;51.528;5.076;2022-08-25T04:38:58;101394.69;;;27.38;41.41
64158;BME280;50449;51.528;5.076;2022-08-25T04:41:24;101398.16;;;27.35;40.89
64158;BME280;50449;51.528;5.076;2022-08-25T04:43:51;101391.00;;;27.34;41.13
64158;BME280;50449;51.528;5.076;2022-08-25T04:46:22;101397.22;;;27.31;40.91
64158;BME280;50449;51.528;5.076;2022-08-25T04:48:50;101395.94;;;27.29;41.14
64158;BME280;50449;51.528;5.076;2022-08-25T04:51:21;101391.06;;;27.26;41.13
64158;BME280;50449;51.528;5.076;2022-08-25T04:53:48;101398.91;;;27.24;41.14
64158;BME280;50449;51.528;5.076;2022-08-25T04:56:16;101405.16;;;27.21;41.07
64158;BME280;50449;51.528;5.076;2022-08-25T04:58:43;101404.69;;;27.18;40.84
64158;BME280;50449;51.528;5.076;2022-08-25T05:01:13;101408.09;;;27.15;40.92
64158;BME280;50449;51.528;5.076;2022-08-25T05:03:43;101404.84;;;27.13;41.10
64158;BME280;50449;51.528;5.076;2022-08-25T05:06:10;101405.53;;;27.10;40.90
64158;BME280;50449;51.528;5.076;2022-08-25T05:08:35;101407.03;;;27.08;40.61
64158;BME280;50449;51.528;5.076;2022-08-25T05:11:09;101410.50;;;27.05;40.50
64158;BME280;50449;51.528;5.076;2022-08-25T05:13:37;101415.88;;;27.01;40.69
64158;BME280;50449;51.528;5.076;2022-08-25T05:16:02;101422.59;;;27.00;40.79
64158;BME280;50449;51.528;5.076;2022-08-25T05:18:30;101421.31;;;26.97;40.96
64158;BME280;50449;51.528;5.076;2022-08-25T05:20:56;101420.00;;;26.95;40.95
64158;BME280;50449;51.528;5.076;2022-08-25T05:23:23;101415.97;;;26.92;40.71
64158;BME280;50449;51.528;5.076;2022-08-25T05:25:49;101425.75;;;26.90;40.87
64158;BME280;50449;51.528;5.076;2022-08-25T05:28:16;101426.91;;;26.89;40.81
64158;BME280;50449;51.528;5.076;2022-08-25T05:30:42;101422.03;;;26.86;40.75
64158;BME280;50449;51.528;5.076;2022-08-25T05:33:09;101432.63;;;26.84;40.63
64158;BME280;50449;51.528;5.076;2022-08-25T05:35:35;101429.41;;;26.82;40.41
64158;BME280;50449;51.528;5.076;2022-08-25T05:38:01;101430.91;;;26.79;40.93
64158;BME280;50449;51.528;5.076;2022-08-25T05:40:28;101425.19;;;26.75;40.86
64158;BME280;50449;51.528;5.076;2022-08-25T05:42:54;101433.88;;;26.74;40.65
64158;BME280;50449;51.528;5.076;2022-08-25T05:45:19;101433.38;;;26.72;40.69
64158;BME280;50449;51.528;5.076;2022-08-25T05:47:45;101439.25;;;26.70;40.87
64158;BME280;50449;51.528;5.076;2022-08-25T05:50:11;101428.53;;;26.69;40.77
64158;BME280;50449;51.528;5.076;2022-08-25T05:52:36;101437.47;;;26.66;40.50
64158;BME280;50449;51.528;5.076;2022-08-25T05:55:03;101433.41;;;26.63;40.84
64158;BME280;50449;51.528;5.076;2022-08-25T05:57:28;101439.31;;;26.62;40.42
64158;BME280;50449;51.528;5.076;2022-08-25T05:59:53;101439.66;;;26.60;40.56
64158;BME280;50449;51.528;5.076;2022-08-25T06:02:19;101442.75;;;26.59;40.58
64158;BME280;50449;51.528;5.076;2022-08-25T06:05:03;101444.25;;;26.56;40.58
64158;BME280;50449;51.528;5.076;2022-08-25T06:07:29;101441.00;;;26.54;40.36
64158;BME280;50449;51.528;5.076;2022-08-25T06:09:54;101441.31;;;26.52;40.59
64158;BME280;50449;51.528;5.076;2022-08-25T06:12:19;101446.34;;;26.50;40.73
64158;BME280;50449;51.528;5.076;2022-08-25T06:14:46;101435.63;;;26.49;40.91
64158;BME280;50449;51.528;5.076;2022-08-25T06:17:13;101435.13;;;26.47;40.59
64158;BME280;50449;51.528;5.076;2022-08-25T06:19:38;101444.56;;;26.46;40.44
64158;BME280;50449;51.528;5.076;2022-08-25T06:22:04;101431.06;;;26.44;41.01
64158;BME280;50449;51.528;5.076;2022-08-25T06:24:29;101439.69;;;26.43;40.71
64158;BME280;50449;51.528;5.076;2022-08-25T06:26:55;101436.94;;;26.43;41.07
64158;BME280;50449;51.528;5.076;2022-08-25T06:29:21;101437.28;;;26.41;40.84
64158;BME280;50449;51.528;5.076;2022-08-25T06:31:47;101445.91;;;26.40;40.68
64158;BME280;50449;51.528;5.076;2022-08-25T06:34:14;101439.56;;;26.39;40.93
64158;BME280;50449;51.528;5.076;2022-08-25T06:36:40;101445.09;;;26.39;40.52
64158;BME280;50449;51.528;5.076;2022-08-25T06:39:06;101451.44;;;26.40;40.84
64158;BME280;50449;51.528;5.076;2022-08-25T06:41:32;101450.66;;;26.39;41.04
64158;BME280;50449;51.528;5.076;2022-08-25T06:43:57;101445.91;;;26.40;40.97
64158;BME280;50449;51.528;5.076;2022-08-25T06:46:25;101434.03;;;26.39;41.09
64158;BME280;50449;51.528;5.076;2022-08-25T06:48:52;101433.22;;;26.39;40.59
64158;BME280;50449;51.528;5.076;2022-08-25T06:51:20;101440.38;;;26.40;40.80
64158;BME280;50449;51.528;5.076;2022-08-25T06:53:47;101434.84;;;26.40;40.86
64158;BME280;50449;51.528;5.076;2022-08-25T06:56:15;101428.50;;;26.39;40.98
64158;BME280;50449;51.528;5.076;2022-08-25T06:58:41;101427.69;;;26.39;40.81
64158;BME280;50449;51.528;5.076;2022-08-25T07:01:15;101434.84;;;26.40;40.70
64158;BME280;50449;51.528;5.076;2022-08-25T07:03:42;101440.38;;;26.40;40.80
64158;BME280;50449;51.528;5.076;2022-08-25T07:06:08;101441.66;;;26.42;41.11
64158;BME280;50449;51.528;5.076;2022-08-25T07:08:34;101430.59;;;26.42;41.17
64158;BME280;50449;51.528;5.076;2022-08-25T07:11:07;101428.28;;;26.44;41.14
64158;BME280;50449;51.528;5.076;2022-08-25T07:13:33;101425.53;;;26.44;40.80
64158;BME280;50449;51.528;5.076;2022-08-25T07:15:58;101431.56;;;26.46;40.92
64158;BME280;50449;51.528;5.076;2022-08-25T07:18:24;101427.63;;;26.47;40.62
64158;BME280;50449;51.528;5.076;2022-08-25T07:20:51;101419.00;;;26.49;40.94
64158;BME280;50449;51.528;5.076;2022-08-25T07:23:18;101419.44;;;26.51;40.50
64158;BME280;50449;51.528;5.076;2022-08-25T07:25:43;101419.97;;;26.53;40.85
64158;BME280;50449;51.528;5.076;2022-08-25T07:28:09;101416.53;;;26.56;40.66
64158;BME280;50449;51.528;5.076;2022-08-25T07:30:34;101411.44;;;26.58;40.42
64158;BME280;50449;51.528;5.076;2022-08-25T07:32:59;101419.94;;;26.62;40.43
64158;BME280;50449;51.528;5.076;2022-08-25T07:35:25;101415.66;;;26.64;40.89
64158;BME280;50449;51.528;5.076;2022-08-25T07:37:54;101422.50;;;26.67;40.72
64158;BME280;50449;51.528;5.076;2022-08-25T07:40:27;101416.28;;;26.70;40.63
64158;BME280;50449;51.528;5.076;2022-08-25T07:42:56;101410.88;;;26.73;40.67
64158;BME280;50449;51.528;5.076;2022-08-25T07:45:22;101415.41;;;26.78;40.80
64158;BME280;50449;51.528;5.076;2022-08-25T07:47:57;101415.56;;;26.82;40.60
64158;BME280;50449;51.528;5.076;2022-08-25T07:50:24;101420.41;;;26.85;40.66
64158;BME280;50449;51.528;5.076;2022-08-25T07:52:50;101420.53;;;26.88;40.58
64158;BME280;50449;51.528;5.076;2022-08-25T07:55:16;101422.31;;;26.93;40.47
64158;BME280;50449;51.528;5.076;2022-08-25T07:57:42;101421.63;;;26.96;40.64
64158;BME280;50449;51.528;5.076;2022-08-25T08:00:13;101425.34;;;27.00;40.22
64158;BME280;50449;51.528;5.076;2022-08-25T08:02:40;101412.44;;;27.04;40.35
64158;BME280;50449;51.528;5.076;2022-08-25T08:05:06;101414.53;;;27.07;40.12
64158;BME280;50449;51.528;5.076;2022-08-25T08:07:32;101420.69;;;27.13;40.11
64158;BME280;50449;51.528;5.076;2022-08-25T08:09:57;101417.22;;;27.16;40.13
64158;BME280;50449;51.528;5.076;2022-08-25T08:12:23;101418.69;;;27.22;40.19
64158;BME280;50449;51.528;5.076;2022-08-25T08:14:50;101410.50;;;27.26;39.94
64158;BME280;50449;51.528;5.076;2022-08-25T08:17:15;101417.00;;;27.30;39.66
64158;BME280;50449;51.528;5.076;2022-08-25T08:19:40;101425.09;;;27.35;39.96
64158;BME280;50449;51.528;5.076;2022-08-25T08:22:06;101421.31;;;27.39;39.80
64158;BME280;50449;51.528;5.076;2022-08-25T08:24:33;101413.59;;;27.45;39.83
64158;BME280;50449;51.528;5.076;2022-08-25T08:27:06;101411.41;;;27.51;39.29
64158;BME280;50449;51.528;5.076;2022-08-25T08:29:33;101413.97;;;27.56;39.44
64158;BME280;50449;51.528;5.076;2022-08-25T08:31:59;101412.59;;;27.62;39.40
64158;BME280;50449;51.528;5.076;2022-08-25T08:34:25;101406.00;;;27.67;39.22
64158;BME280;50449;51.528;5.076;2022-08-25T08:36:51;101413.78;;;27.73;38.97
64158;BME280;50449;51.528;5.076;2022-08-25T08:39:16;101416.81;;;27.80;39.01
64158;BME280;50449;51.528;5.076;2022-08-25T08:57:59;101411.22;;;28.26;38.65
64158;BME280;50449;51.528;5.076;2022-08-25T09:00:27;101409.81;;;28.32;38.67
64158;BME280;50449;51.528;5.076;2022-08-25T09:03:07;101407.25;;;28.39;38.59
64158;BME280;50449;51.528;5.076;2022-08-25T09:05:46;101406.34;;;28.47;38.04
64158;BME280;50449;51.528;5.076;2022-08-25T09:08:13;101406.16;;;28.53;37.71
64158;BME280;50449;51.528;5.076;2022-08-25T09:11:00;101403.56;;;28.60;38.10
64158;BME280;50449;51.528;5.076;2022-08-25T09:13:42;101406.56;;;28.67;37.76
64158;BME280;50449;51.528;5.076;2022-08-25T09:19:44;101408.63;;;28.82;38.22
64158;BME280;50449;51.528;5.076;2022-08-25T09:25:00;101413.69;;;28.92;37.78
64158;BME280;50449;51.528;5.076;2022-08-25T09:27:39;101406.75;;;28.99;37.45
64158;BME280;50449;51.528;5.076;2022-08-25T09:32:41;101411.13;;;29.12;36.93
64158;BME280;50449;51.528;5.076;2022-08-25T09:35:15;101405.31;;;29.17;36.79
64158;BME280;50449;51.528;5.076;2022-08-25T09:37:42;101405.06;;;29.22;37.37
64158;BME280;50449;51.528;5.076;2022-08-25T09:40:08;101400.88;;;29.28;36.94
64158;BME280;50449;51.528;5.076;2022-08-25T09:42:48;101393.06;;;29.34;36.69
64158;BME280;50449;51.528;5.076;2022-08-25T09:45:15;101393.63;;;29.40;36.26
64158;BME280;50449;51.528;5.076;2022-08-25T09:47:43;101385.00;;;29.45;36.22
64158;BME280;50449;51.528;5.076;2022-08-25T09:50:14;101386.38;;;29.51;36.19
64158;BME280;50449;51.528;5.076;2022-08-25T09:52:41;101387.28;;;29.55;36.27
64158;BME280;50449;51.528;5.076;2022-08-25T09:57:52;101384.78;;;29.66;35.90
64158;BME280;50449;51.528;5.076;2022-08-25T10:00:27;101385.38;;;29.71;36.15
64158;BME280;50449;51.528;5.076;2022-08-25T10:03:20;101393.44;;;29.76;36.54
64158;BME280;50449;51.528;5.076;2022-08-25T10:08:38;101381.78;;;29.87;36.02
64158;BME280;50449;51.528;5.076;2022-08-25T10:11:07;101371.97;;;29.93;35.71
64158;BME280;50449;51.528;5.076;2022-08-25T10:13:45;101370.91;;;29.97;35.80
64158;BME280;50449;51.528;5.076;2022-08-25T10:16:22;101366.66;;;30.04;36.22
64158;BME280;50449;51.528;5.076;2022-08-25T10:19:04;101362.00;;;30.08;35.81
64158;BME280;50449;51.528;5.076;2022-08-25T10:21:31;101361.72;;;30.13;35.06
64158;BME280;50449;51.528;5.076;2022-08-25T10:23:57;101363.41;;;30.17;35.23
64158;BME280;50449;51.528;5.076;2022-08-25T10:31:56;101339.50;;;30.32;34.58
64158;BME280;50449;51.528;5.076;2022-08-25T10:34:44;101338.03;;;30.38;34.13
64158;BME280;50449;51.528;5.076;2022-08-25T10:37:14;101344.97;;;30.45;33.86
64158;BME280;50449;51.528;5.076;2022-08-25T10:39:44;101331.91;;;30.49;33.05
64158;BME280;50449;51.528;5.076;2022-08-25T10:48:08;101322.59;;;30.60;33.96
64158;BME280;50449;51.528;5.076;2022-08-25T10:50:47;101318.72;;;30.65;35.02
64158;BME280;50449;51.528;5.076;2022-08-25T10:53:28;101318.44;;;30.70;34.03
64158;BME280;50449;51.528;5.076;2022-08-25T10:56:07;101315.72;;;30.74;33.83
64158;BME280;50449;51.528;5.076;2022-08-25T11:04:13;101306.06;;;30.87;33.29
64158;BME280;50449;51.528;5.076;2022-08-25T11:06:49;101308.56;;;30.92;32.78
64158;BME280;50449;51.528;5.076;2022-08-25T11:09:24;101307.44;;;30.97;31.54
64158;BME280;50449;51.528;5.076;2022-08-25T11:12:06;101314.34;;;31.03;32.72
64158;BME280;50449;51.528;5.076;2022-08-25T11:14:39;101303.22;;;31.07;32.61
64158;BME280;50449;51.528;5.076;2022-08-25T11:17:18;101300.53;;;31.10;32.37
64158;BME280;50449;51.528;5.076;2022-08-25T11:20:00;101299.78;;;31.13;32.07
64158;BME280;50449;51.528;5.076;2022-08-25T11:22:41;101302.28;;;31.18;31.99
64158;BME280;50449;51.528;5.076;2022-08-25T11:27:42;101300.78;;;31.24;33.20
64158;BME280;50449;51.528;5.076;2022-08-25T11:30:12;101289.69;;;31.28;32.14
64158;BME280;50449;51.528;5.076;2022-08-25T11:32:44;101282.56;;;31.31;31.50
64158;BME280;50449;51.528;5.076;2022-08-25T11:35:13;101281.00;;;31.33;31.04
64158;BME280;50449;51.528;5.076;2022-08-25T11:37:56;101290.22;;;31.37;32.06
64158;BME280;50449;51.528;5.076;2022-08-25T11:51:47;101276.63;;;31.55;32.04
64158;BME280;50449;51.528;5.076;2022-08-25T11:57:06;101271.22;;;31.66;31.95
64158;BME280;50449;51.528;5.076;2022-08-25T12:02:36;101260.16;;;31.73;32.13
64158;BME280;50449;51.528;5.076;2022-08-25T12:13:36;101255.22;;;31.89;31.29
64158;BME280;50449;51.528;5.076;2022-08-25T12:16:03;101252.13;;;31.95;31.00
64158;BME280;50449;51.528;5.076;2022-08-25T12:23:39;101252.78;;;32.11;30.63
64158;BME280;50449;51.528;5.076;2022-08-25T12:31:14;101250.16;;;32.25;29.79
64158;BME280;50449;51.528;5.076;2022-08-25T12:36:36;101247.53;;;32.40;29.59
64158;BME280;50449;51.528;5.076;2022-08-25T12:39:15;101240.03;;;32.47;28.68
64158;BME280;50449;51.528;5.076;2022-08-25T12:49:44;101241.22;;;32.76;30.33
64158;BME280;50449;51.528;5.076;2022-08-25T12:52:16;101235.72;;;32.84;30.44
64158;BME280;50449;51.528;5.076;2022-08-25T12:54:51;101234.59;;;32.92;30.43
64158;BME280;50449;51.528;5.076;2022-08-25T12:57:39;101228.66;;;33.01;28.80
64158;BME280;50449;51.528;5.076;2022-08-25T13:02:57;101233.66;;;33.18;30.22
64158;BME280;50449;51.528;5.076;2022-08-25T13:05:44;101231.34;;;33.27;29.83
64158;BME280;50449;51.528;5.076;2022-08-25T13:14:03;101222.75;;;33.54;29.34
64158;BME280;50449;51.528;5.076;2022-08-25T13:16:30;101225.25;;;33.63;29.23
64158;BME280;50449;51.528;5.076;2022-08-25T13:18:57;101215.69;;;33.71;28.58
64158;BME280;50449;51.528;5.076;2022-08-25T13:21:35;101211.75;;;33.79;28.95
64158;BME280;50449;51.528;5.076;2022-08-25T13:24:01;101214.63;;;33.90;27.76
64158;BME280;50449;51.528;5.076;2022-08-25T13:26:37;101209.03;;;33.97;28.54
64158;BME280;50449;51.528;5.076;2022-08-25T13:31:32;101199.94;;;34.14;27.86
64158;BME280;50449;51.528;5.076;2022-08-25T13:34:05;101202.41;;;34.23;27.86
64158;BME280;50449;51.528;5.076;2022-08-25T13:36:46;101201.63;;;34.33;27.72
64158;BME280;50449;51.528;5.076;2022-08-25T13:39:31;101200.47;;;34.41;27.04
64158;BME280;50449;51.528;5.076;2022-08-25T13:41:58;101194.88;;;34.48;28.13
64158;BME280;50449;51.528;5.076;2022-08-25T13:44:27;101196.91;;;34.55;28.47
64158;BME280;50449;51.528;5.076;2022-08-25T13:47:09;101191.72;;;34.64;27.36
64158;BME280;50449;51.528;5.076;2022-08-25T13:49:36;101195.34;;;34.72;27.55
64158;BME280;50449;51.528;5.076;2022-08-25T13:52:03;101186.94;;;34.79;26.82
64158;BME280;50449;51.528;5.076;2022-08-25T13:54:34;101186.16;;;34.86;26.20
64158;BME280;50449;51.528;5.076;2022-08-25T13:57:13;101187.78;;;34.94;26.45
64158;BME280;50449;51.528;5.076;2022-08-25T13:59:42;101184.19;;;35.01;27.12
64158;BME280;50449;51.528;5.076;2022-08-25T14:02:10;101185.00;;;35.08;26.74
64158;BME280;50449;51.528;5.076;2022-08-25T14:07:24;101185.00;;;35.23;26.27
64158;BME280;50449;51.528;5.076;2022-08-25T14:09:55;101189.41;;;35.27;26.31
64158;BME280;50449;51.528;5.076;2022-08-25T14:12:31;101178.16;;;35.35;27.04
64158;BME280;50449;51.528;5.076;2022-08-25T14:17:43;101176.16;;;35.46;26.86
64158;BME280;50449;51.528;5.076;2022-08-25T14:20:18;101175.31;;;35.52;27.00
64158;BME280;50449;51.528;5.076;2022-08-25T14:22:53;101171.31;;;35.57;26.52
64158;BME280;50449;51.528;5.076;2022-08-25T14:25:18;101171.72;;;35.63;26.67
64158;BME280;50449;51.528;5.076;2022-08-25T14:27:44;101168.50;;;35.68;26.28
64158;BME280;50449;51.528;5.076;2022-08-25T14:30:10;101171.72;;;35.73;25.77
64158;BME280;50449;51.528;5.076;2022-08-25T14:32:35;101157.66;;;35.77;25.83
64158;BME280;50449;51.528;5.076;2022-08-25T14:35:01;101160.84;;;35.83;25.67
64158;BME280;50449;51.528;5.076;2022-08-25T14:37:26;101163.66;;;35.86;25.37
64158;BME280;50449;51.528;5.076;2022-08-25T14:39:53;101160.81;;;35.90;26.15
64158;BME280;50449;51.528;5.076;2022-08-25T14:42:18;101162.81;;;35.93;25.91
64158;BME280;50449;51.528;5.076;2022-08-25T14:44:44;101160.00;;;35.96;27.29
64158;BME280;50449;51.528;5.076;2022-08-25T14:47:09;101159.97;;;36.00;26.20
64158;BME280;50449;51.528;5.076;2022-08-25T14:49:39;101158.34;;;36.03;26.66
64158;BME280;50449;51.528;5.076;2022-08-25T14:52:11;101156.34;;;36.07;25.97
64158;BME280;50449;51.528;5.076;2022-08-25T14:54:40;101159.56;;;36.09;25.93
64158;BME280;50449;51.528;5.076;2022-08-25T14:57:05;101163.56;;;36.11;26.14